createdAt,value
2023-04-28T00:00:58.412Z,5.20
2023-04-28T00:02:30.367Z,4.50
2023-04-28T00:04:02.619Z,5.30
2023-04-28T00:05:34.745Z,4.70
2023-04-28T00:07:06.865Z,4.50
2023-04-28T00:08:38.618Z,5.60
2023-04-28T00:10:10.646Z,6.00
2023-04-28T00:11:46.080Z,5.60
2023-04-28T00:13:17.831Z,5.00
2023-04-28T00:14:49.545Z,5.20
2023-04-28T00:16:21.307Z,4.90
2023-04-28T00:17:53.529Z,5.60
2023-04-28T00:19:25.825Z,5.20
2023-04-28T00:20:57.598Z,6.40
2023-04-28T00:22:30.004Z,6.20
2023-04-28T00:24:01.751Z,6.20
2023-04-28T00:25:33.509Z,5.30
2023-04-28T00:27:05.646Z,5.30
2023-04-28T00:28:37.379Z,5.30
2023-04-28T00:30:09.958Z,6.70
2023-04-28T00:31:41.777Z,4.80
2023-04-28T00:33:14.197Z,5.40
2023-04-28T00:34:46.058Z,5.80
2023-04-28T00:36:17.794Z,6.30
2023-04-28T00:37:49.632Z,6.10
2023-04-28T00:39:23.140Z,6.60
2023-04-28T00:40:54.962Z,6.70
2023-04-28T00:42:27.000Z,5.70
2023-04-28T00:43:58.774Z,5.30
2023-04-28T00:45:30.920Z,5.50
2023-04-28T00:47:02.911Z,6.10
2023-04-28T00:48:34.660Z,6.10
2023-04-28T00:50:07.092Z,5.60
2023-04-28T00:51:38.910Z,5.20
2023-04-28T00:53:12.515Z,5.80
2023-04-28T00:54:44.381Z,5.20
2023-04-28T00:56:17.114Z,5.60
2023-04-28T00:57:49.039Z,5.40
2023-04-28T00:59:20.824Z,6.10
2023-04-28T01:00:53.232Z,6.40
2023-04-28T01:02:26.946Z,6.90
2023-04-28T01:05:45.008Z,7.60
2023-04-28T01:07:16.891Z,7.10
2023-04-28T01:08:53.519Z,6.70
2023-04-28T01:10:25.482Z,9.50
2023-04-28T01:11:58.466Z,8.90
2023-04-28T01:13:52.740Z,7.50
2023-04-28T01:15:24.769Z,6.70
2023-04-28T01:16:59.242Z,6.60
2023-04-28T01:18:32.656Z,6.60
2023-04-28T01:20:05.474Z,6.50
2023-04-28T01:21:37.374Z,6.00
2023-04-28T01:23:23.261Z,6.20
2023-04-28T01:24:55.202Z,6.20
2023-04-28T01:26:28.114Z,5.70
2023-04-28T01:27:59.906Z,6.00
2023-04-28T01:29:32.815Z,5.20
2023-04-28T01:31:04.652Z,5.80
2023-04-28T01:32:36.579Z,6.50
2023-04-28T01:34:08.387Z,6.20
2023-04-28T01:35:41.299Z,5.70
2023-04-28T01:37:13.080Z,5.50
2023-04-28T01:38:44.804Z,4.90
2023-04-28T01:40:18.193Z,4.90
2023-04-28T01:41:49.969Z,4.90
2023-04-28T01:43:21.666Z,5.80
2023-04-28T01:44:53.446Z,7.00
2023-04-28T01:46:25.380Z,7.50
2023-04-28T01:47:57.169Z,6.70
2023-04-28T01:49:28.998Z,6.70
2023-04-28T01:51:00.904Z,6.10
2023-04-28T01:52:32.656Z,7.30
2023-04-28T01:54:04.649Z,5.90
2023-04-28T01:56:51.704Z,6.50
2023-04-28T01:58:24.901Z,5.80
2023-04-28T01:59:56.789Z,6.60
2023-04-28T02:01:28.880Z,6.40
2023-04-28T02:03:00.758Z,7.10
2023-04-28T02:04:32.664Z,7.30
2023-04-28T02:06:05.368Z,7.10
2023-04-28T02:07:37.039Z,8.90
2023-04-28T02:09:08.830Z,8.90
2023-04-28T02:10:40.615Z,8.50
2023-04-28T02:12:12.290Z,6.70
2023-04-28T02:13:43.962Z,7.70
2023-04-28T02:15:16.993Z,6.90
2023-04-28T02:16:48.767Z,6.60
2023-04-28T02:18:20.478Z,5.70
2023-04-28T02:19:56.832Z,7.50
2023-04-28T02:21:28.628Z,7.10
2023-04-28T02:23:00.334Z,7.40
2023-04-28T02:24:37.042Z,6.90
2023-04-28T02:26:08.830Z,6.70
2023-04-28T02:27:41.460Z,7.40
2023-04-28T02:29:13.218Z,8.20
2023-04-28T02:30:44.889Z,8.00
2023-04-28T02:32:16.730Z,7.70
2023-04-28T02:33:48.769Z,7.60
2023-04-28T02:35:20.550Z,7.90
2023-04-28T02:36:52.294Z,7.00
2023-04-28T02:38:24.021Z,7.70
2023-04-28T02:39:55.735Z,6.80
2023-04-28T02:41:27.897Z,6.00
2023-04-28T02:42:59.672Z,6.80
2023-04-28T02:44:31.558Z,6.70
2023-04-28T02:46:04.895Z,6.50
2023-04-28T02:47:37.049Z,6.20
2023-04-28T02:49:08.863Z,5.10
2023-04-28T02:50:40.673Z,6.70
2023-04-28T02:52:12.557Z,6.10
2023-04-28T02:53:44.437Z,5.90
2023-04-28T02:55:23.758Z,5.60
2023-04-28T02:56:57.347Z,5.50
2023-04-28T02:58:29.204Z,5.50
2023-04-28T03:00:01.122Z,6.80
2023-04-28T03:01:35.678Z,6.70
2023-04-28T03:03:07.676Z,7.80
2023-04-28T03:04:39.490Z,8.40
2023-04-28T03:06:11.417Z,9.40
2023-04-28T03:07:43.182Z,9.20
2023-04-28T03:09:16.281Z,9.40
2023-04-28T03:10:48.028Z,8.60
2023-04-28T03:12:19.734Z,8.60
2023-04-28T03:13:51.640Z,8.50
2023-04-28T03:15:23.613Z,9.30
2023-04-28T03:16:55.719Z,8.80
2023-04-28T03:18:27.422Z,8.40
2023-04-28T03:20:00.045Z,7.70
2023-04-28T03:21:32.305Z,9.50
2023-04-28T03:23:04.435Z,9.40
2023-04-28T03:24:36.108Z,9.70
2023-04-28T03:26:08.079Z,10.30
2023-04-28T03:27:39.950Z,9.60
2023-04-28T03:29:11.633Z,9.40
2023-04-28T03:30:43.510Z,9.20
2023-04-28T03:32:15.255Z,9.10
2023-04-28T03:33:47.179Z,9.90
2023-04-28T03:35:19.626Z,9.90
2023-04-28T03:36:51.684Z,10.00
2023-04-28T03:38:28.778Z,8.50
2023-04-28T03:40:00.498Z,9.10
2023-04-28T03:41:32.748Z,9.50
2023-04-28T03:43:35.470Z,8.40
2023-04-28T03:45:14.608Z,8.20
2023-04-28T03:46:46.342Z,8.60
2023-04-28T03:48:18.132Z,8.20
2023-04-28T03:49:50.303Z,8.50
2023-04-28T03:51:22.033Z,8.60
2023-04-28T03:52:53.977Z,8.80
2023-04-28T03:54:26.002Z,7.90
2023-04-28T03:55:57.826Z,8.70
2023-04-28T03:57:29.637Z,8.10
2023-04-28T03:59:01.489Z,8.30
2023-04-28T04:00:33.226Z,8.50
2023-04-28T04:02:05.047Z,9.10
2023-04-28T04:03:37.051Z,8.10
2023-04-28T04:05:09.245Z,10.20
2023-04-28T04:06:41.286Z,9.50
2023-04-28T04:08:13.657Z,10.40
2023-04-28T04:09:45.670Z,10.90
2023-04-28T04:11:17.444Z,11.10
2023-04-28T04:12:49.156Z,9.60
2023-04-28T04:14:20.868Z,9.90
2023-04-28T04:15:54.344Z,9.00
2023-04-28T04:17:26.954Z,9.20
2023-04-28T04:18:58.770Z,10.40
2023-04-28T04:20:58.632Z,10.80
2023-04-28T04:22:30.482Z,10.40
2023-04-28T04:24:02.210Z,11.30
2023-04-28T04:25:34.953Z,10.60
2023-04-28T04:27:07.999Z,11.30
2023-04-28T04:28:42.505Z,11.50
2023-04-28T04:30:14.974Z,11.50
2023-04-28T04:31:47.494Z,11.80
2023-04-28T04:33:19.348Z,11.60
2023-04-28T04:34:51.186Z,12.10
2023-04-28T04:36:23.044Z,11.70
2023-04-28T04:37:55.513Z,12.10
2023-04-28T04:39:27.279Z,11.90
2023-04-28T04:40:58.993Z,11.50
2023-04-28T04:42:30.729Z,12.40
2023-04-28T04:44:23.059Z,11.60
2023-04-28T04:45:55.336Z,12.00
2023-04-28T04:47:28.268Z,11.60
2023-04-28T04:49:00.049Z,11.00
2023-04-28T04:50:31.928Z,12.00
2023-04-28T04:52:04.021Z,11.80
2023-04-28T04:53:36.217Z,11.50
2023-04-28T04:55:11.057Z,11.80
2023-04-28T04:56:43.572Z,11.80
2023-04-28T04:58:16.425Z,11.00
2023-04-28T05:00:13.571Z,10.10
2023-04-28T05:01:46.965Z,9.40
2023-04-28T05:03:18.830Z,9.10
2023-04-28T05:04:50.812Z,9.70
2023-04-28T05:06:22.708Z,8.90
2023-04-28T05:07:54.503Z,9.60
2023-04-28T05:09:26.807Z,8.70
2023-04-28T05:10:58.743Z,9.00
2023-04-28T05:12:30.456Z,9.40
2023-04-28T05:14:02.186Z,10.30
2023-04-28T05:15:34.113Z,9.10
2023-04-28T05:17:24.343Z,11.60
2023-04-28T05:18:56.351Z,10.20
2023-04-28T05:20:28.082Z,10.90
2023-04-28T05:22:01.170Z,12.20
2023-04-28T05:23:32.956Z,11.50
2023-04-28T05:25:05.494Z,11.90
2023-04-28T05:26:41.248Z,12.30
2023-04-28T05:28:14.492Z,11.60
2023-04-28T05:29:47.070Z,11.90
2023-04-28T05:31:19.339Z,11.50
2023-04-28T05:32:51.451Z,12.30
2023-04-28T05:34:23.402Z,12.00
2023-04-28T05:35:55.595Z,11.00
2023-04-28T05:37:27.581Z,10.50
2023-04-28T05:39:00.481Z,12.00
2023-04-28T05:40:32.872Z,12.60
2023-04-28T05:42:05.679Z,11.50
2023-04-28T05:43:37.468Z,11.80
2023-04-28T05:45:10.342Z,11.40
2023-04-28T05:46:42.473Z,11.10
2023-04-28T05:48:14.301Z,11.30
2023-04-28T05:49:46.176Z,10.10
2023-04-28T05:51:17.865Z,10.50
2023-04-28T05:52:50.140Z,9.60
2023-04-28T05:54:21.839Z,11.70
2023-04-28T05:55:54.640Z,10.70
2023-04-28T05:57:26.698Z,10.40
2023-04-28T05:58:59.116Z,10.20
2023-04-28T06:00:31.392Z,9.60
2023-04-28T06:02:03.820Z,8.10
2023-04-28T06:03:35.625Z,9.30
2023-04-28T06:05:09.033Z,10.00
2023-04-28T06:06:41.689Z,7.00
2023-04-28T06:08:13.486Z,8.50
2023-04-28T06:09:45.194Z,8.20
2023-04-28T06:11:19.219Z,8.70
2023-04-28T06:12:51.040Z,8.90
2023-04-28T06:14:23.569Z,8.50
2023-04-28T06:15:55.504Z,8.30
2023-04-28T06:17:27.435Z,7.80
2023-04-28T06:19:00.151Z,6.70
2023-04-28T06:20:32.577Z,7.70
2023-04-28T06:22:04.293Z,7.70
2023-04-28T06:23:36.267Z,6.80
2023-04-28T06:25:08.826Z,7.40
2023-04-28T06:26:48.807Z,7.10
2023-04-28T06:28:20.519Z,7.90
2023-04-28T06:29:52.217Z,8.10
2023-04-28T06:31:23.954Z,6.60
2023-04-28T06:32:57.834Z,6.50
2023-04-28T06:34:30.996Z,7.10
2023-04-28T06:36:03.872Z,7.00
2023-04-28T06:37:35.990Z,6.30
2023-04-28T06:39:08.234Z,6.00
2023-04-28T06:40:40.844Z,6.80
2023-04-28T06:42:13.109Z,6.20
2023-04-28T06:43:47.577Z,6.40
2023-04-28T06:45:23.870Z,6.60
2023-04-28T06:46:55.778Z,6.70
2023-04-28T06:48:27.604Z,7.40
2023-04-28T06:49:59.290Z,6.80
2023-04-28T06:51:34.484Z,6.90
2023-04-28T06:53:07.527Z,7.20
2023-04-28T06:54:39.182Z,6.60
2023-04-28T06:56:14.313Z,6.40
2023-04-28T06:57:46.317Z,5.80
2023-04-28T06:59:18.040Z,6.10
2023-04-28T07:00:49.810Z,6.20
2023-04-28T07:02:21.571Z,6.60
2023-04-28T07:03:53.449Z,7.10
2023-04-28T07:05:25.209Z,5.60
2023-04-28T07:06:57.178Z,5.40
2023-04-28T07:08:30.659Z,5.10
2023-04-28T07:10:02.722Z,6.80
2023-04-28T07:11:34.391Z,5.70
2023-04-28T07:13:06.359Z,6.20
2023-04-28T07:14:38.028Z,5.90
2023-04-28T07:16:11.093Z,5.40
2023-04-28T07:17:42.951Z,6.20
2023-04-28T07:19:14.669Z,5.70
2023-04-28T07:20:46.712Z,5.60
2023-04-28T07:22:18.588Z,5.20
2023-04-28T07:23:50.335Z,5.80
2023-04-28T07:25:22.154Z,4.30
2023-04-28T07:26:53.905Z,5.70
2023-04-28T07:28:25.746Z,5.50
2023-04-28T07:29:57.689Z,5.40
2023-04-28T07:31:29.655Z,6.10
2023-04-28T07:33:02.770Z,6.10
2023-04-28T07:34:38.211Z,6.00
2023-04-28T07:36:10.410Z,5.50
2023-04-28T07:37:42.927Z,5.90
2023-04-28T07:39:15.232Z,5.90
2023-04-28T07:40:47.608Z,6.00
2023-04-28T07:42:19.365Z,5.70
2023-04-28T07:43:51.088Z,5.70
2023-04-28T07:45:22.931Z,5.30
2023-04-28T07:46:54.741Z,5.50
2023-04-28T07:48:27.336Z,5.10
2023-04-28T07:50:00.899Z,4.80
2023-04-28T07:51:32.642Z,4.70
2023-04-28T07:53:04.438Z,4.80
2023-04-28T07:54:37.176Z,4.90
2023-04-28T07:56:09.136Z,4.80
2023-04-28T07:57:42.299Z,5.10
2023-04-28T07:59:14.670Z,5.20
2023-04-28T08:00:46.623Z,4.40
2023-04-28T08:02:20.361Z,4.40
2023-04-28T08:03:52.307Z,4.40
2023-04-28T08:05:24.549Z,4.30
2023-04-28T08:06:56.389Z,4.00
2023-04-28T08:08:28.227Z,3.90
2023-04-28T08:10:01.192Z,4.20
2023-04-28T08:11:33.580Z,4.50
2023-04-28T08:13:05.322Z,4.00
2023-04-28T08:14:37.184Z,4.70
2023-04-28T08:16:09.516Z,4.40
2023-04-28T08:17:41.508Z,4.30
2023-04-28T08:19:13.310Z,4.50
2023-04-28T08:20:45.001Z,4.50
2023-04-28T08:22:16.802Z,5.20
2023-04-28T08:23:48.569Z,4.70
2023-04-28T08:25:20.739Z,4.50
2023-04-28T08:26:52.476Z,4.40
2023-04-28T08:28:24.334Z,4.70
2023-04-28T08:29:56.068Z,3.70
2023-04-28T08:31:28.043Z,4.20
2023-04-28T08:32:59.810Z,3.40
2023-04-28T08:34:31.565Z,3.70
2023-04-28T08:36:03.775Z,4.10
2023-04-28T08:37:35.894Z,4.00
2023-04-28T08:39:08.598Z,3.80
2023-04-28T08:40:42.894Z,4.40
2023-04-28T08:42:15.064Z,4.20
2023-04-28T08:43:46.793Z,4.60
2023-04-28T08:45:18.563Z,4.50
2023-04-28T08:46:58.013Z,4.00
2023-04-28T08:48:40.359Z,3.50
2023-04-28T08:50:14.225Z,3.70
2023-04-28T08:52:16.741Z,3.90
2023-04-28T08:55:28.994Z,3.40
2023-04-28T08:57:01.209Z,4.20
2023-04-28T08:58:37.078Z,3.70
2023-04-28T09:00:09.625Z,3.50
2023-04-28T09:01:41.483Z,3.50
2023-04-28T09:03:13.725Z,3.50
2023-04-28T09:04:47.709Z,4.00
2023-04-28T09:06:19.649Z,3.60
2023-04-28T09:07:52.119Z,4.30
2023-04-28T09:09:32.619Z,4.30
2023-04-28T09:11:11.175Z,4.10
2023-04-28T09:12:42.876Z,3.20
2023-04-28T09:14:14.805Z,3.70
2023-04-28T09:15:46.735Z,3.70
2023-04-28T09:17:18.444Z,3.80
2023-04-28T09:18:58.942Z,3.80
2023-04-28T09:20:33.873Z,4.10
2023-04-28T09:22:24.086Z,4.80
2023-04-28T09:23:56.949Z,3.80
2023-04-28T09:25:28.706Z,4.10
2023-04-28T09:27:02.612Z,4.20
2023-04-28T09:28:36.370Z,4.10
2023-04-28T09:30:10.059Z,3.50
2023-04-28T09:31:43.546Z,3.50
2023-04-28T09:33:16.209Z,4.00
2023-04-28T09:34:51.481Z,3.50
2023-04-28T09:36:29.629Z,3.50
2023-04-28T09:38:01.685Z,3.70
2023-04-28T09:39:33.535Z,3.80
2023-04-28T09:41:05.540Z,3.50
2023-04-28T09:42:47.903Z,2.80
2023-04-28T09:44:21.523Z,3.70
2023-04-28T09:45:54.328Z,4.10
2023-04-28T09:47:26.126Z,3.20
2023-04-28T09:49:02.799Z,3.50
2023-04-28T09:50:41.579Z,3.90
2023-04-28T09:52:13.851Z,3.30
2023-04-28T09:53:46.396Z,3.00
2023-04-28T09:55:20.324Z,3.40
2023-04-28T09:56:52.630Z,3.70
2023-04-28T09:58:26.838Z,3.00
2023-04-28T09:59:59.977Z,3.80
2023-04-28T10:01:41.046Z,3.10
2023-04-28T10:03:15.665Z,3.20
2023-04-28T10:04:50.615Z,3.70
2023-04-28T10:06:22.958Z,3.40
2023-04-28T10:07:56.079Z,3.50
2023-04-28T10:09:28.899Z,3.70
2023-04-28T10:11:02.092Z,4.00
2023-04-28T10:12:34.941Z,3.70
2023-04-28T10:14:07.063Z,3.90
2023-04-28T10:15:39.519Z,3.40
2023-04-28T10:17:14.678Z,3.70
2023-04-28T10:18:46.835Z,3.90
2023-04-28T10:20:19.150Z,3.90
2023-04-28T10:22:24.465Z,3.60
2023-04-28T10:24:18.225Z,3.40
2023-04-28T10:25:58.173Z,3.60
2023-04-28T10:27:31.567Z,3.60
2023-04-28T10:29:03.824Z,3.70
2023-04-28T10:30:37.585Z,3.50
2023-04-28T10:32:23.431Z,3.80
2023-04-28T10:33:55.381Z,3.10
2023-04-28T10:35:33.288Z,2.70
2023-04-28T10:37:05.025Z,2.80
2023-04-28T10:39:11.253Z,3.20
2023-04-28T10:40:46.398Z,3.70
2023-04-28T10:42:52.442Z,3.50
2023-04-28T10:44:44.725Z,2.90
2023-04-28T10:46:16.466Z,4.10
2023-04-28T10:48:06.131Z,3.30
2023-04-28T10:49:58.725Z,4.10
2023-04-28T10:51:31.945Z,3.20
2023-04-28T10:53:04.257Z,3.50
2023-04-28T10:54:36.362Z,3.20
2023-04-28T10:56:08.601Z,3.40
2023-04-28T10:57:40.335Z,3.40
2023-04-28T10:59:28.376Z,3.50
2023-04-28T11:01:21.636Z,3.40
2023-04-28T11:02:54.468Z,3.80
2023-04-28T11:04:26.665Z,4.00
2023-04-28T11:06:26.804Z,3.60
2023-04-28T11:08:26.043Z,4.20
2023-04-28T11:09:57.836Z,3.90
2023-04-28T11:11:36.111Z,3.40
2023-04-28T11:13:34.413Z,4.70
2023-04-28T11:15:13.296Z,4.50
2023-04-28T11:17:03.446Z,5.00
2023-04-28T11:18:55.062Z,4.00
2023-04-28T11:20:29.015Z,3.90
2023-04-28T11:22:16.104Z,4.40
2023-04-28T11:23:48.399Z,3.90
2023-04-28T11:25:20.186Z,4.80
2023-04-28T11:26:54.797Z,5.70
2023-04-28T11:28:26.717Z,4.60
2023-04-28T11:29:59.806Z,5.00
2023-04-28T11:31:32.122Z,4.70
2023-04-28T11:33:04.787Z,4.60
2023-04-28T11:34:37.576Z,4.70
2023-04-28T11:36:24.634Z,4.20
2023-04-28T11:38:06.167Z,4.10
2023-04-28T11:39:37.860Z,4.10
2023-04-28T11:41:09.928Z,5.00
2023-04-28T11:42:49.273Z,5.10
2023-04-28T11:44:24.930Z,4.80
2023-04-28T11:45:57.436Z,4.70
2023-04-28T11:47:34.627Z,5.20
2023-04-28T11:49:06.897Z,5.70
2023-04-28T11:50:39.056Z,5.90
2023-04-28T11:52:12.010Z,5.40
2023-04-28T11:53:45.132Z,5.60
2023-04-28T11:55:17.574Z,5.40
2023-04-28T11:56:49.871Z,6.40
2023-04-28T11:58:27.884Z,4.70
2023-04-28T12:00:21.766Z,5.30
2023-04-28T12:02:02.804Z,4.80
2023-04-28T12:03:46.501Z,5.10
2023-04-28T12:05:20.643Z,6.20
2023-04-28T12:07:07.142Z,5.60
2023-04-28T12:08:38.961Z,4.90
2023-04-28T12:10:14.321Z,5.20
2023-04-28T12:11:54.855Z,5.90
2023-04-28T12:13:26.678Z,7.60
2023-04-28T12:15:07.191Z,7.20
2023-04-28T12:16:44.939Z,6.80
2023-04-28T12:18:19.420Z,6.00
2023-04-28T12:19:51.237Z,6.90
2023-04-28T12:21:23.009Z,7.50
2023-04-28T12:22:54.725Z,6.70
2023-04-28T12:24:27.016Z,8.10
2023-04-28T12:26:00.072Z,8.00
2023-04-28T12:27:32.203Z,8.00
2023-04-28T12:29:04.407Z,7.60
2023-04-28T12:30:44.159Z,8.00
2023-04-28T12:32:16.101Z,7.70
2023-04-28T12:33:48.063Z,8.60
2023-04-28T12:35:25.756Z,7.90
2023-04-28T12:36:57.684Z,8.30
2023-04-28T12:38:30.488Z,6.80
2023-04-28T12:40:02.681Z,8.40
2023-04-28T12:41:34.372Z,7.40
2023-04-28T12:43:06.060Z,9.10
2023-04-28T12:44:38.569Z,9.40
2023-04-28T12:46:12.541Z,9.30
2023-04-28T12:47:44.341Z,9.00
2023-04-28T12:49:16.427Z,9.40
2023-04-28T12:50:48.301Z,8.90
2023-04-28T12:52:21.073Z,9.40
2023-04-28T12:53:52.824Z,10.40
2023-04-28T12:55:24.985Z,9.90
2023-04-28T12:56:57.093Z,7.00
2023-04-28T12:58:28.793Z,10.20
2023-04-28T13:00:00.517Z,9.90
2023-04-28T13:01:32.484Z,8.90
2023-04-28T13:03:04.416Z,9.90
2023-04-28T13:04:36.894Z,9.40
2023-04-28T13:06:10.539Z,9.60
2023-04-28T13:07:44.109Z,9.40
2023-04-28T13:09:16.822Z,8.40
2023-04-28T13:10:48.633Z,8.80
2023-04-28T13:12:20.544Z,10.00
2023-04-28T13:13:53.287Z,10.00
2023-04-28T13:15:24.968Z,11.10
2023-04-28T13:16:58.049Z,11.00
2023-04-28T13:18:30.094Z,10.00
2023-04-28T13:20:04.104Z,11.80
2023-04-28T13:21:38.894Z,12.70
2023-04-28T13:23:10.847Z,11.80
2023-04-28T13:24:43.124Z,14.10
2023-04-28T13:26:14.935Z,12.40
2023-04-28T13:27:47.494Z,11.80
2023-04-28T13:29:19.445Z,12.70
2023-04-28T13:30:51.343Z,13.70
2023-04-28T13:32:23.244Z,15.00
2023-04-28T13:33:54.998Z,12.40
2023-04-28T13:35:27.232Z,13.30
2023-04-28T13:36:59.194Z,13.30
2023-04-28T13:38:30.953Z,14.80
2023-04-28T13:40:04.411Z,12.70
2023-04-28T13:41:36.855Z,14.90
2023-04-28T13:43:08.561Z,13.90
2023-04-28T13:44:40.497Z,13.80
2023-04-28T13:46:12.440Z,13.20
2023-04-28T13:47:44.554Z,13.30
2023-04-28T13:49:16.661Z,12.80
2023-04-28T13:50:48.424Z,14.00
2023-04-28T13:52:20.481Z,14.20
2023-04-28T13:53:52.166Z,13.30
2023-04-28T13:55:27.928Z,14.00
2023-04-28T13:56:59.747Z,13.80
2023-04-28T13:58:31.843Z,11.50
2023-04-28T14:00:05.294Z,12.40
2023-04-28T14:01:39.174Z,13.20
2023-04-28T14:03:11.514Z,15.30
2023-04-28T14:04:48.642Z,13.10
2023-04-28T14:06:21.409Z,12.60
2023-04-28T14:07:56.877Z,12.70
2023-04-28T14:09:28.630Z,14.00
2023-04-28T14:11:01.331Z,13.70
2023-04-28T14:12:33.093Z,13.70
2023-04-28T14:14:05.041Z,12.00
2023-04-28T14:15:38.615Z,13.30
2023-04-28T14:17:12.534Z,12.10
2023-04-28T14:18:44.569Z,12.20
2023-04-28T14:20:16.482Z,11.50
2023-04-28T14:21:48.608Z,12.10
2023-04-28T14:23:21.270Z,12.30
2023-04-28T14:24:53.491Z,13.00
2023-04-28T14:26:25.594Z,11.90
2023-04-28T14:27:57.985Z,10.80
2023-04-28T14:29:29.678Z,10.60
2023-04-28T14:31:06.337Z,12.10
2023-04-28T14:32:39.942Z,10.80
2023-04-28T14:34:11.932Z,11.10
2023-04-28T14:35:43.855Z,10.00
2023-04-28T14:37:16.297Z,10.70
2023-04-28T14:38:48.083Z,10.70
2023-04-28T14:40:20.110Z,11.70
2023-04-28T14:41:51.890Z,10.90
2023-04-28T14:43:24.136Z,10.70
2023-04-28T14:44:55.814Z,11.00
2023-04-28T14:46:27.602Z,10.30
2023-04-28T14:47:59.843Z,9.90
2023-04-28T14:49:31.853Z,9.40
2023-04-28T14:51:03.810Z,10.10
2023-04-28T14:52:36.284Z,10.10
2023-04-28T14:54:09.798Z,9.50
2023-04-28T14:55:41.697Z,10.30
2023-04-28T14:57:13.450Z,10.80
2023-04-28T14:58:45.265Z,10.40
2023-04-28T15:00:17.649Z,9.70
2023-04-28T15:01:51.577Z,9.70
2023-04-28T15:03:23.550Z,9.70
2023-04-28T15:04:57.535Z,9.70
2023-04-28T15:06:29.921Z,9.40
2023-04-28T15:08:01.734Z,9.80
2023-04-28T15:09:33.895Z,8.60
2023-04-28T15:11:05.922Z,9.80
2023-04-28T15:12:37.712Z,8.50
2023-04-28T15:14:09.398Z,8.40
2023-04-28T15:15:41.227Z,8.10
2023-04-28T15:17:12.961Z,8.50
2023-04-28T15:18:45.948Z,6.90
2023-04-28T15:20:17.705Z,5.60
2023-04-28T15:21:49.907Z,5.00
2023-04-28T15:23:22.233Z,5.80
2023-04-28T15:24:55.325Z,5.80
2023-04-28T15:26:30.132Z,4.60
2023-04-28T15:28:03.931Z,5.50
2023-04-28T15:29:35.628Z,4.90
2023-04-28T15:31:07.579Z,4.40
2023-04-28T15:32:39.369Z,4.20
2023-04-28T15:34:11.208Z,4.00
2023-04-28T15:35:43.946Z,4.40
2023-04-28T15:37:38.772Z,5.00
2023-04-28T15:39:10.972Z,3.30
2023-04-28T15:40:44.390Z,4.60
2023-04-28T15:42:16.468Z,3.70
2023-04-28T15:43:50.041Z,4.60
2023-04-28T15:45:22.592Z,4.90
2023-04-28T15:46:55.496Z,5.20
2023-04-28T15:48:27.530Z,4.60
2023-04-28T15:49:59.784Z,4.20
2023-04-28T15:51:31.610Z,5.50
2023-04-28T15:53:03.736Z,5.40
2023-04-28T15:54:35.899Z,5.90
2023-04-28T15:56:08.803Z,6.00
2023-04-28T15:57:41.178Z,5.30
2023-04-28T15:59:15.945Z,4.40
2023-04-28T16:00:48.403Z,5.20
2023-04-28T16:02:22.381Z,4.60
2023-04-28T16:03:54.747Z,4.70
2023-04-28T16:05:27.236Z,5.10
2023-04-28T16:07:02.322Z,5.00
2023-04-28T16:08:35.764Z,4.00
2023-04-28T16:10:12.872Z,3.50
2023-04-28T16:11:45.143Z,3.40
2023-04-28T16:13:17.262Z,3.40
2023-04-28T16:14:50.688Z,3.10
2023-04-28T16:16:23.252Z,3.00
2023-04-28T16:17:56.863Z,2.80
2023-04-28T16:19:29.013Z,2.60
2023-04-28T16:21:01.290Z,3.10
2023-04-28T16:22:33.976Z,2.60
2023-04-28T16:24:05.982Z,2.80
2023-04-28T16:25:38.586Z,2.30
2023-04-28T16:27:11.571Z,2.60
2023-04-28T16:28:43.685Z,3.00
2023-04-28T16:30:15.740Z,2.90
2023-04-28T16:31:47.494Z,3.70
2023-04-28T16:33:19.220Z,3.30
2023-04-28T16:34:51.276Z,2.90
2023-04-28T16:36:23.138Z,2.50
2023-04-28T16:37:54.807Z,2.90
2023-04-28T16:39:26.981Z,2.40
2023-04-28T16:40:58.833Z,2.60
2023-04-28T16:42:30.546Z,2.60
2023-04-28T16:44:02.268Z,3.10
2023-04-28T16:45:34.056Z,2.60
2023-04-28T16:47:05.952Z,2.60
2023-04-28T16:48:38.245Z,2.50
2023-04-28T16:50:11.733Z,2.90
2023-04-28T16:51:59.832Z,2.80
2023-04-28T16:53:32.020Z,3.00
2023-04-28T16:55:05.144Z,2.90
2023-04-28T16:56:38.981Z,2.60
2023-04-28T16:58:10.837Z,3.10
2023-04-28T16:59:42.540Z,2.70
2023-04-28T17:01:14.331Z,3.00
2023-04-28T17:02:46.889Z,2.80
2023-04-28T17:04:18.972Z,2.70
2023-04-28T17:05:51.207Z,3.20
2023-04-28T17:07:25.009Z,3.40
2023-04-28T17:08:59.004Z,2.60
2023-04-28T17:10:30.823Z,3.60
2023-04-28T17:12:03.660Z,2.90
2023-04-28T17:13:36.213Z,3.10
2023-04-28T17:15:08.550Z,2.60
2023-04-28T17:16:41.465Z,2.40
2023-04-28T17:18:14.067Z,2.20
2023-04-28T17:19:46.188Z,2.80
2023-04-28T17:21:17.997Z,2.20
2023-04-28T17:22:50.472Z,2.20
2023-04-28T17:24:23.984Z,2.00
2023-04-28T17:25:56.498Z,1.80
2023-04-28T17:27:28.190Z,1.80
2023-04-28T17:29:00.354Z,1.90
2023-04-28T17:30:32.734Z,1.40
2023-04-28T17:32:04.729Z,1.80
2023-04-28T17:33:37.395Z,1.80
2023-04-28T17:35:09.344Z,1.70
2023-04-28T17:36:42.131Z,1.60
2023-04-28T17:38:13.867Z,2.20
2023-04-28T17:39:45.839Z,1.90
2023-04-28T17:41:17.697Z,1.70
2023-04-28T17:42:58.769Z,2.20
2023-04-28T17:44:30.974Z,2.00
2023-04-28T17:46:02.771Z,2.00
2023-04-28T17:47:34.527Z,1.90
2023-04-28T17:49:06.649Z,2.40
2023-04-28T17:50:39.143Z,2.30
2023-04-28T17:52:11.172Z,1.80
2023-04-28T17:53:43.273Z,2.20
2023-04-28T17:55:15.364Z,1.80
2023-04-28T17:56:47.227Z,2.20
2023-04-28T17:58:20.699Z,2.50
2023-04-28T17:59:52.539Z,2.10
2023-04-28T18:01:24.437Z,2.40
2023-04-28T18:02:56.195Z,2.00
2023-04-28T18:04:27.925Z,2.40
2023-04-28T18:05:59.751Z,2.00
2023-04-28T18:07:32.025Z,1.90
2023-04-28T18:09:04.094Z,1.80
2023-04-28T18:10:35.974Z,2.20
2023-04-28T18:12:09.182Z,2.10
2023-04-28T18:13:41.016Z,2.50
2023-04-28T18:15:13.206Z,1.70
2023-04-28T18:16:45.019Z,1.70
2023-04-28T18:18:16.986Z,2.10
2023-04-28T18:19:55.027Z,2.20
2023-04-28T18:21:28.068Z,1.80
2023-04-28T18:22:59.956Z,2.20
2023-04-28T18:24:31.714Z,2.40
2023-04-28T18:26:03.536Z,2.30
2023-04-28T18:27:35.607Z,2.70
2023-04-28T18:29:07.344Z,2.40
2023-04-28T18:30:39.026Z,2.40
2023-04-28T18:32:14.345Z,2.60
2023-04-28T18:33:46.514Z,3.40
2023-04-28T18:35:18.860Z,3.10
2023-04-28T18:36:50.611Z,3.70
2023-04-28T18:38:23.962Z,4.00
2023-04-28T18:39:57.469Z,3.40
2023-04-28T18:41:29.237Z,3.80
2023-04-28T18:43:04.032Z,4.60
2023-04-28T18:44:35.815Z,5.90
2023-04-28T18:46:08.155Z,5.70
2023-04-28T18:47:40.068Z,7.00
2023-04-28T18:49:12.619Z,7.50
2023-04-28T18:50:45.016Z,7.00
2023-04-28T18:52:16.809Z,6.60
2023-04-28T18:53:48.597Z,7.80
2023-04-28T18:55:20.700Z,7.10
2023-04-28T18:56:52.593Z,6.50
2023-04-28T18:58:25.489Z,6.10
2023-04-28T18:59:59.693Z,7.30
2023-04-28T19:01:31.603Z,7.00
2023-04-28T19:03:04.182Z,7.30
2023-04-28T19:04:39.221Z,7.40
2023-04-28T19:06:11.825Z,6.70
2023-04-28T19:07:44.081Z,8.40
2023-04-28T19:09:16.016Z,7.60
2023-04-28T19:10:49.051Z,8.00
2023-04-28T19:12:20.875Z,7.20
2023-04-28T19:13:52.622Z,7.70
2023-04-28T19:15:25.078Z,7.90
2023-04-28T19:16:56.896Z,8.30
2023-04-28T19:18:31.217Z,8.70
2023-04-28T19:20:04.052Z,8.60
2023-04-28T19:21:44.198Z,9.60
2023-04-28T19:23:17.109Z,8.70
2023-04-28T19:24:48.860Z,8.40
2023-04-28T19:26:20.680Z,6.80
2023-04-28T19:27:52.483Z,7.20
2023-04-28T19:29:24.208Z,7.10
2023-04-28T19:30:57.771Z,7.50
2023-04-28T19:32:30.018Z,7.10
2023-04-28T19:34:01.840Z,6.80
2023-04-28T19:35:34.343Z,6.70
2023-04-28T19:37:09.941Z,7.50
2023-04-28T19:38:41.730Z,6.40
2023-04-28T19:40:13.569Z,7.30
2023-04-28T19:41:46.893Z,6.50
2023-04-28T19:43:19.081Z,7.10
2023-04-28T19:44:55.813Z,6.90
2023-04-28T19:46:27.775Z,6.50
2023-04-28T19:47:59.593Z,6.70
2023-04-28T19:49:31.624Z,7.40
2023-04-28T19:51:03.414Z,6.80
2023-04-28T19:52:35.212Z,6.50
2023-04-28T19:54:07.516Z,7.30
2023-04-28T19:55:39.318Z,6.90
2023-04-28T19:57:11.008Z,6.10
2023-04-28T19:58:42.772Z,6.80
2023-04-28T20:00:15.045Z,7.00
2023-04-28T20:01:46.966Z,6.70
2023-04-28T20:03:18.813Z,7.20
2023-04-28T20:04:51.274Z,6.40
2023-04-28T20:06:23.617Z,8.40
2023-04-28T20:07:56.199Z,6.80
2023-04-28T20:09:28.219Z,5.50
2023-04-28T20:10:59.909Z,7.20
2023-04-28T20:12:32.183Z,6.40
2023-04-28T20:14:03.969Z,7.20
2023-04-28T20:15:36.111Z,7.40
2023-04-28T20:17:09.497Z,7.90
2023-04-28T20:18:41.289Z,7.30
2023-04-28T20:20:13.467Z,7.10
2023-04-28T20:21:45.292Z,8.00
2023-04-28T20:23:17.037Z,7.60
2023-04-28T20:24:48.938Z,8.00
2023-04-28T20:26:20.708Z,8.90
2023-04-28T20:27:52.474Z,8.40
2023-04-28T20:29:24.270Z,7.70
2023-04-28T20:30:56.176Z,7.40
2023-04-28T20:32:28.136Z,8.10
2023-04-28T20:34:00.711Z,8.40
2023-04-28T20:35:32.672Z,9.00
2023-04-28T20:37:06.535Z,8.20
2023-04-28T20:38:38.337Z,9.30
2023-04-28T20:40:10.631Z,7.50
2023-04-28T20:41:42.373Z,9.00
2023-04-28T20:43:14.333Z,8.40